Time;durP1;ratioP1;P1;durP2;ratioP2;P2;SDS_P1;SDS_P2;PMS_P1;PMS_P2;Temp;Humidity;BMP_temperature;BMP_pressure;BME280_temperature;BME280_humidity;BME280_pressure;Samples;Min_cycle;Max_cycle;Signal;HPM_P1;HPM_P2
2019/11/26 00:02:56;;;;;;;6.60;5.97;;;;;;;19.86;45.13;99944.48;;;;-51
2019/11/26 00:05:56;;;;;;;6.61;6.00;;;;;;;19.84;45.16;99945.19;;;;-51
2019/11/26 00:08:56;;;;;;;6.20;5.60;;;;;;;19.84;45.18;99947.50;;;;-51
2019/11/26 00:13:56;;;;;;;6.21;5.61;;;;;;;19.82;45.20;99959.86;;;;-50
2019/11/26 00:16:56;;;;;;;6.37;5.77;;;;;;;19.81;45.19;99963.01;;;;-51
2019/11/26 00:20:56;;;;;;;6.49;5.85;;;;;;;19.79;45.19;99961.33;;;;-51
2019/11/26 00:23:56;;;;;;;6.16;5.56;;;;;;;19.78;45.19;99964.74;;;;-51
2019/11/26 00:26:56;;;;;;;6.23;5.63;;;;;;;19.77;45.27;99962.09;;;;-51
2019/11/26 00:29:56;;;;;;;6.36;5.76;;;;;;;19.75;45.26;99964.64;;;;-51
2019/11/26 00:32:56;;;;;;;6.13;5.53;;;;;;;19.75;45.22;99968.73;;;;-51
2019/11/26 00:36:56;;;;;;;6.51;5.81;;;;;;;19.73;45.26;99964.87;;;;-51
2019/11/26 00:39:56;;;;;;;6.43;5.75;;;;;;;19.73;45.21;99966.20;;;;-51
2019/11/26 00:43:56;;;;;;;6.22;5.63;;;;;;;19.71;45.27;99962.38;;;;-51
2019/11/26 00:46:56;;;;;;;6.14;5.54;;;;;;;19.70;45.29;99955.88;;;;-51
2019/11/26 00:49:56;;;;;;;6.28;5.68;;;;;;;19.68;45.26;99950.08;;;;-51
2019/11/26 00:53:56;;;;;;;6.47;5.81;;;;;;;19.67;45.26;99938.38;;;;-51
2019/11/26 00:56:56;;;;;;;6.32;5.48;;;;;;;19.67;45.29;99934.20;;;;-50
2019/11/26 00:59:56;;;;;;;6.45;5.81;;;;;;;19.65;45.26;99936.04;;;;-51
2019/11/26 01:02:56;;;;;;;6.13;5.54;;;;;;;19.64;45.27;99942.13;;;;-50
2019/11/26 01:05:56;;;;;;;6.17;5.57;;;;;;;19.62;45.28;99940.63;;;;-51
2019/11/26 01:08:56;;;;;;;5.81;5.29;;;;;;;19.61;45.31;99948.49;;;;-50
2019/11/26 01:11:56;;;;;;;5.89;5.29;;;;;;;19.61;45.28;99943.37;;;;-51
2019/11/26 01:14:56;;;;;;;6.03;5.43;;;;;;;19.58;45.31;99930.70;;;;-51
2019/11/26 01:17:56;;;;;;;5.65;5.15;;;;;;;19.58;45.33;99932.14;;;;-51
2019/11/26 01:21:19;;;;;;;5.98;5.38;;;;;;;19.56;45.34;99928.22;;;;-51
2019/11/26 01:25:56;;;;;;;6.05;5.48;;;;;;;19.56;45.33;99935.75;;;;-51
2019/11/26 01:28:56;;;;;;;5.93;5.37;;;;;;;19.55;45.33;99933.70;;;;-51
2019/11/26 01:31:56;;;;;;;5.87;5.37;;;;;;;19.54;45.36;99931.16;;;;-51
2019/11/26 01:34:56;;;;;;;6.13;5.49;;;;;;;19.53;45.36;99939.39;;;;-51
2019/11/26 01:37:56;;;;;;;5.87;5.30;;;;;;;19.52;45.33;99937.19;;;;-51
2019/11/26 01:40:56;;;;;;;5.88;5.29;;;;;;;19.51;45.38;99928.54;;;;-50
2019/11/26 01:45:56;;;;;;;6.02;5.42;;;;;;;19.49;45.42;99917.02;;;;-51
2019/11/26 01:48:56;;;;;;;5.96;5.36;;;;;;;19.48;45.35;99918.31;;;;-51
2019/11/26 01:51:56;;;;;;;5.67;5.17;;;;;;;19.47;45.37;99919.79;;;;-51
2019/11/26 01:54:56;;;;;;;5.87;5.29;;;;;;;19.46;45.37;99918.48;;;;-51
2019/11/26 01:58:56;;;;;;;5.81;5.21;;;;;;;19.45;45.42;99914.86;;;;-51
2019/11/26 02:01:56;;;;;;;5.53;5.00;;;;;;;19.45;45.38;99910.23;;;;-51
2019/11/26 02:04:56;;;;;;;6.11;5.52;;;;;;;19.43;45.42;99909.19;;;;-51
2019/11/26 02:07:56;;;;;;;5.81;5.31;;;;;;;19.43;45.40;99902.36;;;;-50
2019/11/26 02:10:56;;;;;;;5.69;5.19;;;;;;;19.41;45.42;99894.08;;;;-51
2019/11/26 02:14:56;;;;;;;5.42;4.92;;;;;;;19.40;45.47;99897.00;;;;-51
2019/11/26 02:17:56;;;;;;;5.50;5.00;;;;;;;19.39;45.45;99896.73;;;;-51
2019/11/26 02:21:56;;;;;;;5.93;5.32;;;;;;;19.37;45.46;99896.92;;;;-51
2019/11/26 02:24:56;;;;;;;5.49;4.99;;;;;;;19.37;45.44;99896.42;;;;-51
2019/11/26 02:28:56;;;;;;;5.71;5.21;;;;;;;19.36;45.45;99893.73;;;;-51
2019/11/26 02:31:56;;;;;;;5.62;5.12;;;;;;;19.35;45.47;99892.23;;;;-51
2019/11/26 02:40:13;;;;;;;5.67;5.17;;;;;;;19.34;45.44;99876.12;;;;-50
2019/11/26 02:44:13;;;;;;;5.22;4.75;;;;;;;19.32;45.42;99868.78;;;;-50
2019/11/26 02:47:13;;;;;;;5.55;5.05;;;;;;;19.31;45.48;99870.59;;;;-50
2019/11/26 02:52:38;;;;;;;5.29;4.79;;;;;;;19.30;45.44;99865.77;;;;-50
2019/11/26 02:55:13;;;;;;;5.46;4.96;;;;;;;19.30;45.52;99861.91;;;;-50
2019/11/26 02:58:13;;;;;;;5.80;5.30;;;;;;;19.28;45.55;99863.85;;;;-50
2019/11/26 03:01:13;;;;;;;5.51;5.01;;;;;;;19.29;45.52;99870.31;;;;-50
2019/11/26 03:04:12;;;;;;;5.66;5.08;;;;;;;19.28;45.45;99863.85;;;;-50
2019/11/26 03:07:12;;;;;;;5.79;5.29;;;;;;;19.27;45.55;99864.59;;;;-50
2019/11/26 03:10:12;;;;;;;5.21;4.71;;;;;;;19.26;45.47;99864.95;;;;-50
2019/11/26 03:13:13;;;;;;;5.10;4.70;;;;;;;19.25;45.58;99864.41;;;;-50
2019/11/26 03:17:13;;;;;;;5.62;5.12;;;;;;;19.24;45.54;99863.87;;;;-50
2019/11/26 03:21:12;;;;;;;5.37;4.87;;;;;;;19.23;45.53;99859.32;;;;-50
2019/11/26 03:24:12;;;;;;;5.18;4.68;;;;;;;19.23;45.52;99856.47;;;;-50
2019/11/26 03:27:12;;;;;;;5.26;4.76;;;;;;;19.22;45.50;99857.88;;;;-50
2019/11/26 03:30:13;;;;;;;5.17;4.67;;;;;;;19.22;45.49;99853.69;;;;-50
2019/11/26 03:33:13;;;;;;;5.65;5.13;;;;;;;19.21;45.51;99852.16;;;;-50
2019/11/26 03:36:13;;;;;;;5.29;4.79;;;;;;;19.20;45.58;99854.02;;;;-50
2019/11/26 03:39:12;;;;;;;5.17;4.67;;;;;;;19.19;45.52;99852.08;;;;-50
2019/11/26 03:42:13;;;;;;;5.29;4.79;;;;;;;19.19;45.58;99852.58;;;;-50
2019/11/26 03:45:21;;;;;;;5.23;4.74;;;;;;;19.18;45.55;99855.39;;;;-50
2019/11/26 03:49:13;;;;;;;5.23;4.73;;;;;;;19.18;45.52;99855.73;;;;-50
2019/11/26 03:54:31;;;;;;;5.21;4.71;;;;;;;19.16;45.61;99847.89;;;;-50
2019/11/26 03:59:12;;;;;;;5.01;4.58;;;;;;;19.15;45.59;99849.49;;;;-50
2019/11/26 04:03:12;;;;;;;4.91;4.50;;;;;;;19.15;45.61;99850.93;;;;-50
2019/11/26 04:09:13;;;;;;;5.27;4.77;;;;;;;19.14;45.61;99844.64;;;;-51
2019/11/26 04:15:13;;;;;;;5.07;4.57;;;;;;;19.14;45.60;99848.39;;;;-51
2019/11/26 04:21:13;;;;;;;5.20;4.70;;;;;;;19.17;45.63;99855.66;;;;-50
2019/11/26 04:26:13;;;;;;;4.93;4.41;;;;;;;19.19;45.54;99860.78;;;;-50
2019/11/26 04:29:13;;;;;;;4.58;4.18;;;;;;;19.21;45.49;99861.70;;;;-50
2019/11/26 04:33:13;;;;;;;4.64;4.24;;;;;;;19.23;45.67;99848.37;;;;-50
2019/11/26 04:36:13;;;;;;;4.68;4.28;;;;;;;19.26;45.76;99845.97;;;;-50
2019/11/26 04:39:13;;;;;;;4.73;4.33;;;;;;;19.28;45.71;99847.45;;;;-50
2019/11/26 04:42:13;;;;;;;4.73;4.31;;;;;;;19.32;45.73;99852.44;;;;-50
2019/11/26 04:47:13;;;;;;;4.75;4.30;;;;;;;19.38;45.69;99840.94;;;;-50
2019/11/26 04:50:24;;;;;;;4.37;3.97;;;;;;;19.43;45.71;99835.72;;;;-50
2019/11/26 04:53:20;;;;;;;4.46;4.06;;;;;;;19.46;45.73;99835.48;;;;-50
2019/11/26 04:56:13;;;;;;;4.66;4.26;;;;;;;19.49;45.75;99826.48;;;;-50
2019/11/26 04:59:13;;;;;;;4.27;3.87;;;;;;;19.52;45.74;99826.65;;;;-50
2019/11/26 05:02:13;;;;;;;4.63;4.23;;;;;;;19.56;45.83;99831.74;;;;-50
2019/11/26 05:05:13;;;;;;;4.49;4.09;;;;;;;19.59;45.84;99827.99;;;;-50
2019/11/26 05:08:13;;;;;;;4.05;3.71;;;;;;;19.62;45.80;99833.42;;;;-50
2019/11/26 05:11:13;;;;;;;4.39;3.99;;;;;;;19.65;45.81;99834.30;;;;-50
2019/11/26 05:14:13;;;;;;;4.21;3.82;;;;;;;19.67;45.86;99834.30;;;;-51
2019/11/26 05:17:13;;;;;;;4.30;3.90;;;;;;;19.70;45.82;99833.13;;;;-50
2019/11/26 05:20:13;;;;;;;4.22;3.82;;;;;;;19.73;45.83;99833.13;;;;-51
2019/11/26 05:23:13;;;;;;;4.59;4.09;;;;;;;19.76;45.79;99833.72;;;;-50
2019/11/26 05:28:13;;;;;;;4.45;4.05;;;;;;;19.79;45.80;99842.70;;;;-50
2019/11/26 05:31:15;;;;;;;4.59;4.19;;;;;;;19.81;45.83;99845.62;;;;-51
2019/11/26 05:35:13;;;;;;;4.25;3.85;;;;;;;19.82;45.80;99834.69;;;;-50
2019/11/26 05:39:13;;;;;;;3.97;3.65;;;;;;;19.84;45.74;99834.16;;;;-51
2019/11/26 05:42:13;;;;;;;3.91;3.61;;;;;;;19.85;45.77;99825.98;;;;-50
2019/11/26 05:45:13;;;;;;;4.20;3.80;;;;;;;19.86;45.72;99821.48;;;;-50
2019/11/26 05:50:12;;;;;;;4.27;3.96;;;;;;;19.87;45.64;99828.32;;;;-50
2019/11/26 05:53:12;;;;;;;4.02;3.69;;;;;;;19.88;45.64;99827.15;;;;-51
2019/11/26 06:02:38;;;;;;;4.17;3.78;;;;;;;19.88;45.59;99834.45;;;;-50
2019/11/26 06:07:38;;;;;;;3.83;3.53;;;;;;;19.90;45.54;99834.52;;;;-51
2019/11/26 06:17:04;;;;;;;4.17;3.65;;;;;;;19.90;45.77;99825.64;;;;-46
2019/11/26 06:20:04;;;;;;;6.79;4.93;;;;;;;19.89;45.34;99823.26;;;;-47
2019/11/26 06:23:04;;;;;;;7.59;5.15;;;;;;;19.90;44.86;99823.13;;;;-47
2019/11/26 06:26:04;;;;;;;7.15;5.08;;;;;;;19.91;44.76;99822.98;;;;-46
2019/11/26 06:31:21;;;;;;;7.11;5.03;;;;;;;19.94;45.04;99824.09;;;;-50
2019/11/26 06:37:04;;;;;;;8.97;5.30;;;;;;;19.99;45.25;99818.66;;;;-47
2019/11/26 06:40:04;;;;;;;6.74;4.97;;;;;;;20.01;44.87;99814.46;;;;-47
2019/11/26 06:43:04;;;;;;;6.42;5.13;;;;;;;20.03;44.85;99820.39;;;;-49
2019/11/26 06:47:04;;;;;;;6.69;5.09;;;;;;;20.07;44.71;99824.27;;;;-48
2019/11/26 06:56:30;;;;;;;6.52;5.23;;;;;;;20.14;44.71;99823.39;;;;-49
2019/11/26 07:00:29;;;;;;;6.73;5.27;;;;;;;20.16;44.61;99820.67;;;;-51
2019/11/26 07:03:30;;;;;;;5.76;5.15;;;;;;;20.18;44.33;99824.63;;;;-47
2019/11/26 07:09:36;;;;;;;6.15;5.01;;;;;;;20.21;44.21;99824.78;;;;-49
2019/11/26 07:12:29;;;;;;;5.91;4.90;;;;;;;20.23;44.41;99825.02;;;;-52
2019/11/26 07:15:30;;;;;;;5.35;4.85;;;;;;;20.24;44.56;99825.98;;;;-53
2019/11/26 07:18:30;;;;;;;6.25;5.11;;;;;;;20.29;44.63;99830.80;;;;-51
2019/11/26 07:21:30;;;;;;;5.25;4.59;;;;;;;20.29;44.30;99832.02;;;;-51
2019/11/26 07:24:30;;;;;;;4.97;4.47;;;;;;;20.30;44.48;99831.88;;;;-51
2019/11/26 07:27:29;;;;;;;4.93;4.53;;;;;;;20.33;44.56;99828.65;;;;-51
2019/11/26 07:30:30;;;;;;;5.61;4.75;;;;;;;20.32;44.52;99828.72;;;;-51
2019/11/26 07:33:30;;;;;;;5.41;4.52;;;;;;;20.33;44.54;99825.49;;;;-50
2019/11/26 07:36:30;;;;;;;5.38;4.48;;;;;;;20.34;44.50;99822.58;;;;-51
2019/11/26 07:39:30;;;;;;;4.85;4.19;;;;;;;20.36;44.83;99831.63;;;;-47
2019/11/26 07:42:29;;;;;;;4.62;4.15;;;;;;;20.38;45.10;99829.23;;;;-48
2019/11/26 07:45:30;;;;;;;5.41;4.22;;;;;;;20.41;45.13;99835.77;;;;-49
2019/11/26 07:48:30;;;;;;;4.97;4.33;;;;;;;20.44;45.09;99843.08;;;;-49
2019/11/26 07:51:30;;;;;;;7.49;4.15;;;;;;;20.48;45.29;99840.34;;;;-51
2019/11/26 07:54:30;;;;;;;5.43;4.27;;;;;;;20.50;45.47;99835.30;;;;-50
2019/11/26 07:57:29;;;;;;;4.35;3.95;;;;;;;20.54;45.44;99832.64;;;;-50
2019/11/26 08:00:30;;;;;;;4.62;4.15;;;;;;;20.55;45.24;99839.72;;;;-50
2019/11/26 08:03:30;;;;;;;4.66;4.13;;;;;;;20.61;45.40;99837.66;;;;-51
2019/11/26 08:06:29;;;;;;;4.55;4.00;;;;;;;20.62;45.28;99833.48;;;;-50
2019/11/26 08:09:35;;;;;;;5.45;4.06;;;;;;;20.64;45.24;99834.11;;;;-49
2019/11/26 08:12:33;;;;;;;4.98;4.03;;;;;;;20.67;45.22;99834.61;;;;-51
2019/11/26 08:15:30;;;;;;;5.30;3.95;;;;;;;20.69;45.38;99833.16;;;;-50
2019/11/26 08:18:30;;;;;;;4.51;4.11;;;;;;;20.73;45.24;99837.97;;;;-50
2019/11/26 08:21:30;;;;;;;4.28;3.87;;;;;;;20.76;45.51;99833.46;;;;-50
2019/11/26 08:24:30;;;;;;;4.34;3.91;;;;;;;20.77;45.21;99834.40;;;;-50
2019/11/26 08:28:29;;;;;;;4.71;3.96;;;;;;;20.80;45.06;99835.96;;;;-49
2019/11/26 08:33:30;;;;;;;4.95;4.03;;;;;;;20.83;44.71;99833.23;;;;-51
2019/11/26 08:36:29;;;;;;;5.46;3.81;;;;;;;20.82;44.79;99828.70;;;;-50
2019/11/26 08:39:29;;;;;;;4.07;3.67;;;;;;;20.82;44.82;99825.95;;;;-51
2019/11/26 08:42:30;;;;;;;3.88;3.57;;;;;;;20.83;44.75;99818.90;;;;-50
2019/11/26 08:45:30;;;;;;;4.38;3.67;;;;;;;20.83;44.77;99810.58;;;;-51
2019/11/26 08:48:29;;;;;;;3.94;3.59;;;;;;;20.83;44.75;99811.75;;;;-50
2019/11/26 08:51:30;;;;;;;3.82;3.51;;;;;;;20.83;44.84;99808.73;;;;-50
2019/11/26 08:55:30;;;;;;;3.82;3.50;;;;;;;20.83;44.74;99804.30;;;;-50
2019/11/26 08:58:30;;;;;;;4.33;3.78;;;;;;;20.83;44.78;99803.22;;;;-50
2019/11/26 09:01:29;;;;;;;3.95;3.55;;;;;;;20.84;44.74;99803.55;;;;-51
2019/11/26 09:04:30;;;;;;;4.07;3.63;;;;;;;20.83;44.72;99796.81;;;;-50
2019/11/26 09:07:29;;;;;;;4.20;3.80;;;;;;;20.83;44.74;99793.42;;;;-50
2019/11/26 09:10:29;;;;;;;3.99;3.69;;;;;;;20.83;44.70;99787.28;;;;-51
2019/11/26 09:13:29;;;;;;;3.82;3.37;;;;;;;20.83;44.69;99787.21;;;;-51
2019/11/26 09:16:29;;;;;;;5.62;5.05;;;;;;;20.70;44.01;99785.13;;;;-49
2019/11/26 09:20:29;;;;;;;10.01;8.97;;;;;;;20.41;43.52;99787.06;;;;-49
2019/11/26 09:23:29;;;;;;;10.86;9.56;;;;;;;20.29;43.34;99786.13;;;;-48
2019/11/26 09:26:29;;;;;;;13.20;9.49;;;;;;;20.29;43.73;99781.74;;;;-47
2019/11/26 09:29:30;;;;;;;10.85;8.94;;;;;;;20.41;44.06;99781.53;;;;-50
2019/11/26 09:32:29;;;;;;;9.33;7.47;;;;;;;20.51;44.19;99779.61;;;;-49
2019/11/26 09:35:30;;;;;;;7.81;6.80;;;;;;;20.57;44.30;99780.63;;;;-50
2019/11/26 09:38:29;;;;;;;9.27;6.18;;;;;;;20.62;44.12;99777.19;;;;-50
2019/11/26 09:41:30;;;;;;;6.71;6.01;;;;;;;20.67;44.54;99775.48;;;;-50
2019/11/26 09:44:30;;;;;;;7.02;5.36;;;;;;;20.73;44.41;99775.38;;;;-49
2019/11/26 09:47:30;;;;;;;8.04;5.34;;;;;;;20.77;44.68;99769.86;;;;-47
2019/11/26 09:50:29;;;;;;;6.19;5.25;;;;;;;20.81;44.75;99762.98;;;;-49
2019/11/26 09:55:30;;;;;;;6.82;5.29;;;;;;;20.86;44.74;99764.54;;;;-48
2019/11/26 09:58:29;;;;;;;5.22;4.72;;;;;;;20.90;44.68;99765.97;;;;-51
2019/11/26 10:01:29;;;;;;;5.96;4.74;;;;;;;20.91;44.57;99763.41;;;;-51
2019/11/26 10:04:30;;;;;;;5.73;4.89;;;;;;;20.90;44.29;99756.42;;;;-51
2019/11/26 10:07:30;;;;;;;5.14;4.63;;;;;;;20.91;44.39;99759.38;;;;-51
2019/11/26 10:10:30;;;;;;;5.83;4.90;;;;;;;20.91;44.34;99758.03;;;;-51
2019/11/26 10:14:30;;;;;;;7.25;4.75;;;;;;;20.93;44.37;99745.83;;;;-48
2019/11/26 10:17:30;;;;;;;6.55;5.14;;;;;;;20.93;44.29;99744.42;;;;-48
2019/11/26 10:20:30;;;;;;;6.83;5.23;;;;;;;20.95;44.19;99745.22;;;;-48
2019/11/26 10:23:30;;;;;;;6.38;5.02;;;;;;;20.95;43.93;99747.63;;;;-47
2019/11/26 10:26:30;;;;;;;5.80;5.20;;;;;;;20.95;43.87;99740.19;;;;-47
2019/11/26 10:29:30;;;;;;;10.40;5.17;;;;;;;21.01;44.78;99742.02;;;;-46
2019/11/26 10:32:30;;;;;;;6.70;4.91;;;;;;;21.02;44.42;99740.27;;;;-48
2019/11/26 10:35:30;;;;;;;10.77;4.97;;;;;;;21.07;44.61;99738.39;;;;-47
2019/11/26 10:38:30;;;;;;;11.03;4.77;;;;;;;21.08;44.63;99728.58;;;;-52
2019/11/26 10:43:30;;;;;;;6.69;4.97;;;;;;;21.09;44.41;99727.93;;;;-50
2019/11/26 10:47:42;;;;;;;12.09;4.83;;;;;;;21.15;45.04;99721.40;;;;-49
2019/11/26 10:50:43;;;;;;;7.83;4.65;;;;;;;21.13;45.46;99717.83;;;;-49
2019/11/26 10:56:30;;;;;;;11.28;4.58;;;;;;;21.19;45.88;99710.55;;;;-46
2019/11/26 10:59:30;;;;;;;11.51;4.30;;;;;;;21.20;46.07;99709.52;;;;-50
2019/11/26 11:02:30;;;;;;;9.25;4.45;;;;;;;21.19;45.82;99702.09;;;;-60
2019/11/26 11:05:30;;;;;;;7.19;4.28;;;;;;;21.19;45.78;99698.06;;;;-49
2019/11/26 11:11:30;;;;;;;11.48;4.55;;;;;;;21.22;46.23;99696.97;;;;-51
2019/11/26 11:14:30;;;;;;;12.41;4.39;;;;;;;21.23;46.03;99688.66;;;;-50
2019/11/26 11:17:30;;;;;;;11.90;4.22;;;;;;;21.23;46.14;99692.35;;;;-49
2019/11/26 11:20:30;;;;;;;8.06;4.00;;;;;;;21.23;45.94;99691.61;;;;-50
2019/11/26 11:23:30;;;;;;;8.67;4.26;;;;;;;21.21;45.79;99688.71;;;;-52
2019/11/26 11:26:30;;;;;;;6.57;4.26;;;;;;;21.22;46.20;99677.98;;;;-48
2019/11/26 11:29:30;;;;;;;8.01;4.33;;;;;;;21.22;45.99;99679.16;;;;-47
2019/11/26 11:32:30;;;;;;;12.85;4.20;;;;;;;21.20;45.67;99674.31;;;;-47
2019/11/26 11:35:30;;;;;;;12.04;4.05;;;;;;;21.16;45.44;99669.88;;;;-47
2019/11/26 11:40:30;;;;;;;8.06;4.23;;;;;;;21.12;45.34;99660.02;;;;-47
2019/11/26 11:43:30;;;;;;;6.13;3.91;;;;;;;21.10;45.26;99660.66;;;;-47
2019/11/26 11:46:30;;;;;;;7.73;3.97;;;;;;;21.06;45.36;99655.96;;;;-46
2019/11/26 11:49:30;;;;;;;7.51;4.11;;;;;;;21.06;45.46;99656.60;;;;-47
2019/11/26 11:52:30;;;;;;;7.24;4.01;;;;;;;21.04;45.50;99644.83;;;;-48
2019/11/26 11:55:30;;;;;;;5.42;3.91;;;;;;;21.05;45.50;99637.20;;;;-50
2019/11/26 11:58:30;;;;;;;5.13;3.93;;;;;;;21.04;45.49;99636.81;;;;-57
2019/11/26 12:01:30;;;;;;;8.38;3.79;;;;;;;21.02;45.46;99629.73;;;;-53
2019/11/26 12:04:30;;;;;;;6.35;3.83;;;;;;;20.99;45.29;99627.89;;;;-49
2019/11/26 12:07:30;;;;;;;8.99;4.15;;;;;;;20.97;45.22;99624.34;;;;-49
2019/11/26 12:10:30;;;;;;;4.21;3.56;;;;;;;20.95;45.18;99620.67;;;;-49
2019/11/26 12:13:30;;;;;;;5.15;3.61;;;;;;;20.93;45.17;99616.59;;;;-49
2019/11/26 12:16:30;;;;;;;4.95;3.73;;;;;;;20.92;45.14;99616.16;;;;-49
2019/11/26 12:19:30;;;;;;;5.34;3.69;;;;;;;20.90;45.09;99607.80;;;;-49
2019/11/26 12:22:30;;;;;;;5.48;3.91;;;;;;;20.88;45.10;99611.09;;;;-49
2019/11/26 12:25:30;;;;;;;4.92;3.70;;;;;;;20.88;45.08;99601.86;;;;-49
2019/11/26 12:28:30;;;;;;;6.21;3.92;;;;;;;20.87;45.01;99604.27;;;;-49
2019/11/26 12:31:30;;;;;;;5.53;3.72;;;;;;;20.87;45.07;99602.52;;;;-49
2019/11/26 12:34:30;;;;;;;4.03;3.39;;;;;;;20.87;45.00;99603.34;;;;-49
2019/11/26 12:37:30;;;;;;;4.24;3.56;;;;;;;20.87;44.99;99599.25;;;;-49
2019/11/26 12:40:30;;;;;;;4.15;3.35;;;;;;;20.86;44.98;99597.72;;;;-49
2019/11/26 12:46:34;;;;;;;5.31;3.35;;;;;;;20.87;44.91;99594.45;;;;-49
2019/11/26 12:49:30;;;;;;;4.22;3.33;;;;;;;20.86;44.94;99588.89;;;;-49
2019/11/26 12:52:30;;;;;;;3.85;3.47;;;;;;;20.85;44.95;99583.77;;;;-49
2019/11/26 12:55:30;;;;;;;5.27;3.31;;;;;;;20.86;44.94;99584.94;;;;-49
2019/11/26 12:58:30;;;;;;;5.27;3.21;;;;;;;20.86;44.96;99584.36;;;;-49
2019/11/26 13:01:30;;;;;;;3.57;3.23;;;;;;;20.86;44.92;99589.40;;;;-49
2019/11/26 13:04:30;;;;;;;4.09;3.31;;;;;;;20.85;44.93;99588.60;;;;-45
2019/11/26 13:07:30;;;;;;;4.32;3.30;;;;;;;20.85;44.93;99585.20;;;;-46
2019/11/26 13:10:30;;;;;;;4.26;3.40;;;;;;;20.85;44.93;99583.09;;;;-46
2019/11/26 13:13:30;;;;;;;3.77;3.31;;;;;;;20.85;44.94;99582.16;;;;-46
2019/11/26 13:16:30;;;;;;;4.31;3.31;;;;;;;20.84;44.96;99577.53;;;;-46
2019/11/26 13:19:30;;;;;;;3.70;3.27;;;;;;;20.85;44.92;99577.19;;;;-47
2019/11/26 13:22:30;;;;;;;3.78;3.33;;;;;;;20.84;44.94;99571.16;;;;-47
2019/11/26 13:25:30;;;;;;;3.95;2.92;;;;;;;20.83;44.94;99573.24;;;;-47
2019/11/26 13:28:30;;;;;;;4.33;3.39;;;;;;;20.83;44.96;99567.67;;;;-45
2019/11/26 13:31:30;;;;;;;3.73;3.25;;;;;;;20.82;44.95;99567.08;;;;-46
2019/11/26 13:34:30;;;;;;;3.97;3.25;;;;;;;20.82;44.96;99562.11;;;;-46
2019/11/26 13:37:30;;;;;;;3.48;3.00;;;;;;;20.81;44.96;99559.43;;;;-49
2019/11/26 13:40:30;;;;;;;3.64;3.05;;;;;;;20.80;44.97;99558.06;;;;-53
2019/11/26 13:43:30;;;;;;;3.40;2.98;;;;;;;20.80;44.93;99553.94;;;;-53
2019/11/26 13:46:30;;;;;;;3.30;3.00;;;;;;;20.79;44.96;99551.97;;;;-52
2019/11/26 13:49:31;;;;;;;3.92;2.91;;;;;;;20.79;44.97;99551.46;;;;-52
2019/11/26 13:52:30;;;;;;;3.77;3.15;;;;;;;20.79;44.96;99552.04;;;;-46
2019/11/26 13:58:33;;;;;;;3.73;2.85;;;;;;;20.77;45.02;99548.06;;;;-47
2019/11/26 14:01:30;;;;;;;3.21;2.91;;;;;;;20.77;45.00;99541.59;;;;-46
2019/11/26 14:04:30;;;;;;;3.92;3.31;;;;;;;20.76;45.01;99530.15;;;;-45
2019/11/26 14:07:30;;;;;;;3.59;3.00;;;;;;;20.75;44.99;99528.20;;;;-45
2019/11/26 14:10:30;;;;;;;3.31;3.00;;;;;;;20.75;44.98;99525.83;;;;-46
2019/11/26 14:13:30;;;;;;;3.06;2.83;;;;;;;20.74;45.06;99525.06;;;;-52
2019/11/26 14:16:30;;;;;;;4.38;3.10;;;;;;;20.75;45.42;99528.37;;;;-48
2019/11/26 14:19:30;;;;;;;9.83;3.23;;;;;;;20.75;45.31;99522.08;;;;-45
2019/11/26 14:22:30;;;;;;;10.10;3.25;;;;;;;20.78;45.75;99525.91;;;;-48
2019/11/26 14:25:30;;;;;;;6.41;3.41;;;;;;;20.77;45.54;99518.66;;;;-43
2019/11/26 14:28:30;;;;;;;6.31;3.46;;;;;;;20.77;45.46;99517.18;;;;-44
2019/11/26 14:31:31;;;;;;;6.91;3.41;;;;;;;20.78;45.68;99511.98;;;;-49
2019/11/26 14:35:30;;;;;;;8.13;3.40;;;;;;;20.79;45.85;99508.84;;;;-51
2019/11/26 14:38:30;;;;;;;4.61;3.09;;;;;;;20.81;46.02;99507.38;;;;-53
2019/11/26 14:41:30;;;;;;;5.51;3.23;;;;;;;20.82;46.03;99503.28;;;;-51
2019/11/26 14:44:30;;;;;;;5.43;3.07;;;;;;;20.82;46.05;99504.98;;;;-49
2019/11/26 14:47:30;;;;;;;8.51;3.38;;;;;;;20.85;46.76;99504.29;;;;-50
2019/11/26 14:50:30;;;;;;;6.72;3.37;;;;;;;20.84;46.49;99502.25;;;;-53
2019/11/26 14:53:30;;;;;;;9.25;3.71;;;;;;;20.82;45.81;99502.80;;;;-54
2019/11/26 14:56:30;;;;;;;14.06;3.87;;;;;;;20.84;46.19;99504.44;;;;-48
2019/11/26 14:59:30;;;;;;;10.84;3.69;;;;;;;20.84;46.50;99498.47;;;;-51
2019/11/26 15:02:30;;;;;;;21.56;4.10;;;;;;;20.84;46.52;99501.17;;;;-49
2019/11/26 15:05:30;;;;;;;17.97;3.95;;;;;;;20.81;46.45;99503.89;;;;-52
2019/11/26 15:08:30;;;;;;;10.09;4.01;;;;;;;20.76;45.90;99505.98;;;;-48
2019/11/26 15:11:30;;;;;;;9.37;3.91;;;;;;;20.77;46.18;99507.59;;;;-48
2019/11/26 15:14:30;;;;;;;14.95;4.04;;;;;;;20.77;46.33;99507.35;;;;-52
2019/11/26 15:17:30;;;;;;;12.71;3.71;;;;;;;20.80;46.62;99510.08;;;;-46
2019/11/26 15:20:30;;;;;;;6.39;3.37;;;;;;;20.80;46.10;99512.23;;;;-45
2019/11/26 15:23:30;;;;;;;6.37;3.55;;;;;;;20.81;45.94;99512.78;;;;-46
2019/11/26 15:26:30;;;;;;;7.71;3.44;;;;;;;20.81;45.84;99511.00;;;;-45
2019/11/26 15:29:30;;;;;;;7.15;3.57;;;;;;;20.81;45.80;99510.59;;;;-45
2019/11/26 15:32:30;;;;;;;8.51;3.57;;;;;;;20.81;45.74;99510.73;;;;-46
2019/11/26 15:35:30;;;;;;;7.75;3.70;;;;;;;20.80;45.70;99512.09;;;;-45
2019/11/26 15:38:54;;;;;;;4.50;3.44;;;;;;;20.80;45.63;99512.59;;;;-46
2019/11/26 15:41:33;;;;;;;8.45;3.25;;;;;;;20.80;45.60;99512.66;;;;-46
2019/11/26 15:44:30;;;;;;;7.30;3.52;;;;;;;20.80;45.60;99515.25;;;;-46
2019/11/26 15:47:30;;;;;;;5.72;3.31;;;;;;;20.79;45.56;99516.30;;;;-46
2019/11/26 15:50:30;;;;;;;4.87;3.19;;;;;;;20.78;45.53;99514.86;;;;-46
2019/11/26 15:53:30;;;;;;;7.04;3.29;;;;;;;20.78;45.51;99512.58;;;;-45
2019/11/26 15:56:30;;;;;;;7.27;3.60;;;;;;;20.78;45.52;99509.16;;;;-45
2019/11/26 15:59:30;;;;;;;6.65;3.31;;;;;;;20.77;45.48;99503.23;;;;-45
2019/11/26 16:02:30;;;;;;;5.91;3.51;;;;;;;20.77;45.48;99506.08;;;;-46
2019/11/26 16:05:30;;;;;;;4.95;3.31;;;;;;;20.77;45.47;99500.98;;;;-46
2019/11/26 16:08:30;;;;;;;5.62;3.31;;;;;;;20.76;45.44;99507.09;;;;-46
2019/11/26 16:11:30;;;;;;;5.61;3.17;;;;;;;20.76;45.44;99504.65;;;;-45
2019/11/26 16:14:30;;;;;;;4.63;3.25;;;;;;;20.75;45.42;99493.61;;;;-46
2019/11/26 16:17:30;;;;;;;5.11;3.21;;;;;;;20.75;45.41;99495.06;;;;-46
2019/11/26 16:20:30;;;;;;;6.70;3.43;;;;;;;20.74;45.57;99497.81;;;;-44
2019/11/26 16:23:30;;;;;;;4.48;3.25;;;;;;;20.74;45.93;99485.56;;;;-44
2019/11/26 16:26:30;;;;;;;5.08;3.29;;;;;;;20.75;45.85;99478.71;;;;-44
2019/11/26 16:29:30;;;;;;;5.14;3.12;;;;;;;20.75;45.87;99470.30;;;;-48
2019/11/26 16:32:31;;;;;;;7.79;3.43;;;;;;;20.77;45.90;99467.32;;;;-43
2019/11/26 16:35:30;;;;;;;5.09;3.13;;;;;;;20.78;45.91;99462.58;;;;-46
2019/11/26 16:38:30;;;;;;;4.76;3.37;;;;;;;20.79;45.98;99459.91;;;;-48
2019/11/26 16:41:30;;;;;;;6.84;3.29;;;;;;;20.80;45.93;99460.37;;;;-45
2019/11/26 16:44:31;;;;;;;3.83;3.03;;;;;;;20.80;45.98;99460.06;;;;-46
2019/11/26 16:47:30;;;;;;;5.36;3.31;;;;;;;20.81;45.98;99457.81;;;;-50
2019/11/26 16:50:30;;;;;;;4.59;3.09;;;;;;;20.81;45.93;99447.67;;;;-54
2019/11/26 16:53:30;;;;;;;4.27;3.09;;;;;;;20.82;45.95;99444.51;;;;-60
2019/11/26 16:56:30;;;;;;;3.66;3.09;;;;;;;20.83;45.84;99442.08;;;;-63
2019/11/26 16:59:30;;;;;;;4.89;3.00;;;;;;;20.83;45.83;99434.53;;;;-61
2019/11/26 17:02:30;;;;;;;4.65;3.29;;;;;;;20.84;45.82;99426.91;;;;-53
2019/11/26 17:05:30;;;;;;;3.18;2.83;;;;;;;20.84;45.79;99421.44;;;;-56
2019/11/26 17:08:30;;;;;;;4.39;3.02;;;;;;;20.84;45.81;99419.12;;;;-56
2019/11/26 17:11:30;;;;;;;5.27;3.26;;;;;;;20.83;45.69;99413.70;;;;-56
2019/11/26 17:14:30;;;;;;;4.16;3.22;;;;;;;20.83;45.82;99416.55;;;;-63
2019/11/26 17:17:30;;;;;;;4.44;2.89;;;;;;;20.83;45.89;99419.02;;;;-58
2019/11/26 17:20:30;;;;;;;3.17;2.85;;;;;;;20.84;45.90;99419.45;;;;-53
2019/11/26 17:23:30;;;;;;;4.90;2.82;;;;;;;20.88;45.82;99415.08;;;;-55
2019/11/26 17:26:30;;;;;;;5.38;3.12;;;;;;;20.88;45.92;99420.95;;;;-52
2019/11/26 17:29:30;;;;;;;3.95;2.99;;;;;;;20.91;46.06;99423.36;;;;-57
2019/11/26 17:32:30;;;;;;;3.43;2.96;;;;;;;20.94;46.15;99415.55;;;;-55
2019/11/26 17:35:30;;;;;;;3.77;3.00;;;;;;;20.96;46.14;99411.56;;;;-56
2019/11/26 17:38:30;;;;;;;3.23;2.93;;;;;;;20.97;46.14;99407.22;;;;-55
2019/11/26 17:41:30;;;;;;;3.78;2.96;;;;;;;20.99;46.17;99400.98;;;;-56
2019/11/26 17:44:30;;;;;;;3.07;2.79;;;;;;;21.03;46.09;99401.47;;;;-56
2019/11/26 17:47:30;;;;;;;3.85;2.79;;;;;;;21.04;46.17;99393.09;;;;-56
2019/11/26 17:50:30;;;;;;;3.53;2.95;;;;;;;21.07;46.09;99392.22;;;;-57
2019/11/26 17:53:30;;;;;;;5.75;3.28;;;;;;;21.09;46.03;99390.34;;;;-52
2019/11/26 17:56:30;;;;;;;8.10;3.02;;;;;;;21.11;45.92;99384.16;;;;-57
2019/11/26 17:59:31;;;;;;;4.65;2.87;;;;;;;21.11;45.74;99374.59;;;;-57
2019/11/26 18:02:30;;;;;;;6.55;2.91;;;;;;;21.11;45.69;99369.97;;;;-57
2019/11/26 18:05:31;;;;;;;4.39;3.11;;;;;;;21.11;45.69;99374.68;;;;-57
2019/11/26 18:08:30;;;;;;;3.89;2.97;;;;;;;21.12;45.67;99389.64;;;;-57
2019/11/26 18:11:30;;;;;;;3.99;2.81;;;;;;;21.12;45.59;99393.66;;;;-57
2019/11/26 18:14:30;;;;;;;4.06;2.80;;;;;;;21.13;45.61;99389.99;;;;-57
2019/11/26 18:17:30;;;;;;;3.61;2.64;;;;;;;21.13;45.61;99383.05;;;;-58
2019/11/26 18:20:30;;;;;;;4.93;2.90;;;;;;;21.13;45.60;99375.89;;;;-58
2019/11/26 18:23:30;;;;;;;3.25;2.73;;;;;;;21.14;45.59;99386.09;;;;-57
2019/11/26 18:26:30;;;;;;;7.27;2.78;;;;;;;21.15;45.58;99389.53;;;;-57
2019/11/26 18:29:30;;;;;;;3.97;2.85;;;;;;;21.15;45.55;99389.30;;;;-57
2019/11/26 18:32:30;;;;;;;3.15;2.73;;;;;;;21.16;45.54;99395.87;;;;-57
2019/11/26 18:35:30;;;;;;;2.96;2.53;;;;;;;21.18;45.58;99394.13;;;;-57
2019/11/26 18:38:30;;;;;;;4.39;2.81;;;;;;;21.17;45.56;99390.52;;;;-57
2019/11/26 18:41:30;;;;;;;3.13;2.61;;;;;;;21.19;45.53;99399.86;;;;-57
2019/11/26 18:44:30;;;;;;;3.37;2.69;;;;;;;21.20;45.50;99398.27;;;;-57